sensor_id;sensor_type;location;lat;lon;timestamp;P1;durP1;ratioP1;P2;durP2;ratioP2
3000;SDS011;1510;51.072;6.678;2023-02-19T00:00:58;608.37;;;574.30;;
3000;SDS011;1510;51.072;6.678;2023-02-19T00:03:29;606.93;;;573.07;;
3000;SDS011;1510;51.072;6.678;2023-02-19T00:05:55;607.30;;;574.47;;
3000;SDS011;1510;51.072;6.678;2023-02-19T00:08:22;615.93;;;581.27;;
3000;SDS011;1510;51.072;6.678;2023-02-19T00:10:49;611.30;;;576.53;;
3000;SDS011;1510;51.072;6.678;2023-02-19T00:13:17;614.40;;;580.00;;
3000;SDS011;1510;51.072;6.678;2023-02-19T00:15:44;611.77;;;577.17;;
3000;SDS011;1510;51.072;6.678;2023-02-19T00:18:10;615.20;;;580.00;;
3000;SDS011;1510;51.072;6.678;2023-02-19T00:20:38;613.50;;;577.80;;
3000;SDS011;1510;51.072;6.678;2023-02-19T00:23:05;619.87;;;584.03;;
3000;SDS011;1510;51.072;6.678;2023-02-19T00:25:34;613.80;;;578.60;;
3000;SDS011;1510;51.072;6.678;2023-02-19T00:28:02;606.63;;;572.37;;
3000;SDS011;1510;51.072;6.678;2023-02-19T00:30:29;596.13;;;563.67;;
3000;SDS011;1510;51.072;6.678;2023-02-19T00:32:56;596.77;;;563.40;;
3000;SDS011;1510;51.072;6.678;2023-02-19T00:35:22;590.87;;;558.60;;
3000;SDS011;1510;51.072;6.678;2023-02-19T00:37:50;586.37;;;554.47;;
3000;SDS011;1510;51.072;6.678;2023-02-19T00:40:17;584.33;;;552.87;;
3000;SDS011;1510;51.072;6.678;2023-02-19T00:42:44;577.73;;;547.30;;
3000;SDS011;1510;51.072;6.678;2023-02-19T00:45:10;577.70;;;547.00;;
3000;SDS011;1510;51.072;6.678;2023-02-19T00:47:37;573.03;;;543.57;;
3000;SDS011;1510;51.072;6.678;2023-02-19T00:50:04;569.03;;;540.43;;
3000;SDS011;1510;51.072;6.678;2023-02-19T00:52:31;550.70;;;524.30;;
3000;SDS011;1510;51.072;6.678;2023-02-19T00:54:59;530.10;;;506.10;;
3000;SDS011;1510;51.072;6.678;2023-02-19T00:57:26;534.73;;;510.27;;
3000;SDS011;1510;51.072;6.678;2023-02-19T00:59:53;527.07;;;503.00;;
3000;SDS011;1510;51.072;6.678;2023-02-19T01:02:19;525.57;;;501.40;;
3000;SDS011;1510;51.072;6.678;2023-02-19T01:04:46;520.37;;;497.47;;
3000;SDS011;1510;51.072;6.678;2023-02-19T01:07:13;521.33;;;498.67;;
3000;SDS011;1510;51.072;6.678;2023-02-19T01:09:40;536.03;;;512.13;;
3000;SDS011;1510;51.072;6.678;2023-02-19T01:12:08;534.30;;;510.63;;
3000;SDS011;1510;51.072;6.678;2023-02-19T01:14:35;526.97;;;503.70;;
3000;SDS011;1510;51.072;6.678;2023-02-19T01:17:02;517.73;;;495.53;;
3000;SDS011;1510;51.072;6.678;2023-02-19T01:19:29;488.23;;;468.10;;
3000;SDS011;1510;51.072;6.678;2023-02-19T01:21:56;460.03;;;442.00;;
3000;SDS011;1510;51.072;6.678;2023-02-19T01:24:22;459.80;;;441.63;;
3000;SDS011;1510;51.072;6.678;2023-02-19T01:26:49;436.67;;;419.60;;
3000;SDS011;1510;51.072;6.678;2023-02-19T01:29:17;392.40;;;377.67;;
3000;SDS011;1510;51.072;6.678;2023-02-19T01:31:44;419.60;;;403.57;;
3000;SDS011;1510;51.072;6.678;2023-02-19T01:34:11;410.23;;;394.80;;
3000;SDS011;1510;51.072;6.678;2023-02-19T01:36:37;416.97;;;401.30;;
3000;SDS011;1510;51.072;6.678;2023-02-19T01:39:04;432.70;;;416.33;;
3000;SDS011;1510;51.072;6.678;2023-02-19T01:41:33;443.30;;;426.37;;
3000;SDS011;1510;51.072;6.678;2023-02-19T01:44:02;440.03;;;423.27;;
3000;SDS011;1510;51.072;6.678;2023-02-19T01:46:33;440.17;;;423.60;;
3000;SDS011;1510;51.072;6.678;2023-02-19T01:49:01;465.13;;;447.30;;
3000;SDS011;1510;51.072;6.678;2023-02-19T01:51:32;440.77;;;424.40;;
3000;SDS011;1510;51.072;6.678;2023-02-19T01:54:04;455.00;;;437.37;;
3000;SDS011;1510;51.072;6.678;2023-02-19T01:56:33;457.73;;;440.63;;
3000;SDS011;1510;51.072;6.678;2023-02-19T01:59:02;483.37;;;464.93;;
3000;SDS011;1510;51.072;6.678;2023-02-19T02:01:30;486.33;;;467.97;;
3000;SDS011;1510;51.072;6.678;2023-02-19T02:03:58;463.60;;;446.50;;
3000;SDS011;1510;51.072;6.678;2023-02-19T02:06:26;470.83;;;452.87;;
3000;SDS011;1510;51.072;6.678;2023-02-19T02:08:56;444.23;;;427.83;;
3000;SDS011;1510;51.072;6.678;2023-02-19T02:11:43;462.33;;;444.83;;
3000;SDS011;1510;51.072;6.678;2023-02-19T02:14:12;467.40;;;449.63;;
3000;SDS011;1510;51.072;6.678;2023-02-19T02:16:42;480.47;;;462.57;;
3000;SDS011;1510;51.072;6.678;2023-02-19T02:19:23;482.60;;;464.20;;
3000;SDS011;1510;51.072;6.678;2023-02-19T02:22:06;498.90;;;479.30;;
3000;SDS011;1510;51.072;6.678;2023-02-19T02:27:41;474.83;;;457.10;;
3000;SDS011;1510;51.072;6.678;2023-02-19T02:30:26;492.20;;;473.43;;
3000;SDS011;1510;51.072;6.678;2023-02-19T02:33:00;506.07;;;486.17;;
3000;SDS011;1510;51.072;6.678;2023-02-19T02:35:38;496.47;;;477.13;;
3000;SDS011;1510;51.072;6.678;2023-02-19T02:38:10;476.57;;;458.63;;
3000;SDS011;1510;51.072;6.678;2023-02-19T02:40:38;469.27;;;451.27;;
3000;SDS011;1510;51.072;6.678;2023-02-19T02:43:08;470.40;;;453.10;;
3000;SDS011;1510;51.072;6.678;2023-02-19T02:45:37;439.33;;;422.93;;
3000;SDS011;1510;51.072;6.678;2023-02-19T02:48:15;475.67;;;457.97;;
3000;SDS011;1510;51.072;6.678;2023-02-19T02:50:49;518.40;;;497.20;;
3000;SDS011;1510;51.072;6.678;2023-02-19T02:53:20;515.60;;;495.50;;
3000;SDS011;1510;51.072;6.678;2023-02-19T02:56:10;492.20;;;472.93;;
3000;SDS011;1510;51.072;6.678;2023-02-19T02:58:39;487.43;;;468.37;;
3000;SDS011;1510;51.072;6.678;2023-02-19T03:01:09;494.23;;;475.00;;
3000;SDS011;1510;51.072;6.678;2023-02-19T03:03:59;511.23;;;490.87;;
3000;SDS011;1510;51.072;6.678;2023-02-19T03:06:28;466.90;;;449.40;;
3000;SDS011;1510;51.072;6.678;2023-02-19T03:08:59;471.20;;;453.60;;
3000;SDS011;1510;51.072;6.678;2023-02-19T03:11:33;463.00;;;445.17;;
3000;SDS011;1510;51.072;6.678;2023-02-19T03:14:19;434.80;;;418.63;;
3000;SDS011;1510;51.072;6.678;2023-02-19T03:17:11;428.00;;;412.43;;
3000;SDS011;1510;51.072;6.678;2023-02-19T03:20:02;405.03;;;390.20;;
3000;SDS011;1510;51.072;6.678;2023-02-19T03:22:35;420.03;;;404.57;;
3000;SDS011;1510;51.072;6.678;2023-02-19T03:25:04;422.50;;;406.87;;
3000;SDS011;1510;51.072;6.678;2023-02-19T03:27:55;391.37;;;377.17;;
3000;SDS011;1510;51.072;6.678;2023-02-19T03:30:26;432.77;;;417.13;;
3000;SDS011;1510;51.072;6.678;2023-02-19T03:32:57;416.50;;;401.57;;
3000;SDS011;1510;51.072;6.678;2023-02-19T03:35:28;417.10;;;402.13;;
3000;SDS011;1510;51.072;6.678;2023-02-19T03:37:59;370.37;;;356.67;;
3000;SDS011;1510;51.072;6.678;2023-02-19T03:40:30;393.87;;;379.47;;
3000;SDS011;1510;51.072;6.678;2023-02-19T03:43:05;372.80;;;359.20;;
3000;SDS011;1510;51.072;6.678;2023-02-19T03:45:43;385.37;;;371.50;;
3000;SDS011;1510;51.072;6.678;2023-02-19T03:48:19;363.27;;;350.17;;
3000;SDS011;1510;51.072;6.678;2023-02-19T03:50:51;381.03;;;366.97;;
3000;SDS011;1510;51.072;6.678;2023-02-19T03:53:26;374.60;;;360.80;;
3000;SDS011;1510;51.072;6.678;2023-02-19T03:56:03;357.67;;;344.77;;
3000;SDS011;1510;51.072;6.678;2023-02-19T03:58:34;345.90;;;333.50;;
3000;SDS011;1510;51.072;6.678;2023-02-19T04:01:09;319.47;;;306.53;;
3000;SDS011;1510;51.072;6.678;2023-02-19T04:03:44;300.57;;;289.63;;
3000;SDS011;1510;51.072;6.678;2023-02-19T04:06:15;310.43;;;298.73;;
3000;SDS011;1510;51.072;6.678;2023-02-19T04:08:46;334.60;;;321.83;;
3000;SDS011;1510;51.072;6.678;2023-02-19T04:11:17;463.83;;;445.83;;
3000;SDS011;1510;51.072;6.678;2023-02-19T04:13:46;614.20;;;582.13;;
3000;SDS011;1510;51.072;6.678;2023-02-19T04:16:19;616.50;;;586.03;;
3000;SDS011;1510;51.072;6.678;2023-02-19T04:18:50;555.07;;;529.97;;
3000;SDS011;1510;51.072;6.678;2023-02-19T04:21:21;608.17;;;576.07;;
3000;SDS011;1510;51.072;6.678;2023-02-19T04:23:48;618.07;;;583.43;;
3000;SDS011;1510;51.072;6.678;2023-02-19T04:26:15;632.53;;;594.53;;
3000;SDS011;1510;51.072;6.678;2023-02-19T04:28:45;619.43;;;583.43;;
3000;SDS011;1510;51.072;6.678;2023-02-19T04:31:12;621.77;;;584.93;;
3000;SDS011;1510;51.072;6.678;2023-02-19T04:33:39;637.27;;;596.57;;
3000;SDS011;1510;51.072;6.678;2023-02-19T04:36:08;640.90;;;598.43;;
3000;SDS011;1510;51.072;6.678;2023-02-19T04:38:36;641.40;;;599.43;;
3000;SDS011;1510;51.072;6.678;2023-02-19T04:41:02;630.07;;;590.67;;
3000;SDS011;1510;51.072;6.678;2023-02-19T04:43:29;595.87;;;559.17;;
3000;SDS011;1510;51.072;6.678;2023-02-19T04:45:58;620.07;;;578.17;;
3000;SDS011;1510;51.072;6.678;2023-02-19T04:48:25;612.53;;;576.13;;
3000;SDS011;1510;51.072;6.678;2023-02-19T04:50:52;621.90;;;582.10;;
3000;SDS011;1510;51.072;6.678;2023-02-19T04:53:20;577.73;;;544.47;;
3000;SDS011;1510;51.072;6.678;2023-02-19T04:55:47;576.67;;;543.17;;
3000;SDS011;1510;51.072;6.678;2023-02-19T04:58:17;596.50;;;561.93;;
3000;SDS011;1510;51.072;6.678;2023-02-19T05:00:44;572.80;;;540.37;;
3000;SDS011;1510;51.072;6.678;2023-02-19T05:03:11;606.87;;;569.77;;
3000;SDS011;1510;51.072;6.678;2023-02-19T05:05:37;605.80;;;568.90;;
3000;SDS011;1510;51.072;6.678;2023-02-19T05:10:28;608.43;;;570.33;;
3000;SDS011;1510;51.072;6.678;2023-02-19T05:11:35;586.57;;;554.27;;
3000;SDS011;1510;51.072;6.678;2023-02-19T05:14:01;567.10;;;537.03;;
3000;SDS011;1510;51.072;6.678;2023-02-19T05:16:28;605.40;;;570.53;;
3000;SDS011;1510;51.072;6.678;2023-02-19T05:18:55;593.93;;;560.27;;
3000;SDS011;1510;51.072;6.678;2023-02-19T05:21:22;599.33;;;564.30;;
3000;SDS011;1510;51.072;6.678;2023-02-19T05:23:49;586.87;;;553.10;;
3000;SDS011;1510;51.072;6.678;2023-02-19T05:26:16;585.77;;;552.20;;
3000;SDS011;1510;51.072;6.678;2023-02-19T05:28:47;566.53;;;533.77;;
3000;SDS011;1510;51.072;6.678;2023-02-19T05:31:16;593.30;;;557.73;;
3000;SDS011;1510;51.072;6.678;2023-02-19T05:33:43;603.07;;;565.97;;
3000;SDS011;1510;51.072;6.678;2023-02-19T05:36:15;565.97;;;532.67;;
3000;SDS011;1510;51.072;6.678;2023-02-19T05:38:42;595.47;;;557.90;;
3000;SDS011;1510;51.072;6.678;2023-02-19T05:41:10;609.77;;;570.50;;
3000;SDS011;1510;51.072;6.678;2023-02-19T05:43:38;619.47;;;576.40;;
3000;SDS011;1510;51.072;6.678;2023-02-19T05:46:08;647.20;;;601.20;;
3000;SDS011;1510;51.072;6.678;2023-02-19T05:48:35;637.50;;;592.70;;
3000;SDS011;1510;51.072;6.678;2023-02-19T05:51:02;646.00;;;598.50;;
3000;SDS011;1510;51.072;6.678;2023-02-19T05:53:31;629.10;;;585.40;;
3000;SDS011;1510;51.072;6.678;2023-02-19T05:55:58;630.67;;;587.60;;
3000;SDS011;1510;51.072;6.678;2023-02-19T05:58:25;627.13;;;583.17;;
3000;SDS011;1510;51.072;6.678;2023-02-19T06:00:51;625.50;;;579.13;;
3000;SDS011;1510;51.072;6.678;2023-02-19T06:03:20;639.97;;;594.97;;
3000;SDS011;1510;51.072;6.678;2023-02-19T06:05:47;630.37;;;586.77;;
3000;SDS011;1510;51.072;6.678;2023-02-19T06:08:14;619.13;;;578.03;;
3000;SDS011;1510;51.072;6.678;2023-02-19T06:10:41;620.30;;;576.90;;
3000;SDS011;1510;51.072;6.678;2023-02-19T06:13:08;635.63;;;590.80;;
3000;SDS011;1510;51.072;6.678;2023-02-19T06:15:35;638.43;;;594.57;;
3000;SDS011;1510;51.072;6.678;2023-02-19T06:18:02;638.07;;;590.97;;
3000;SDS011;1510;51.072;6.678;2023-02-19T06:20:30;635.07;;;590.67;;
3000;SDS011;1510;51.072;6.678;2023-02-19T06:22:57;635.87;;;592.17;;
3000;SDS011;1510;51.072;6.678;2023-02-19T06:25:24;628.80;;;586.93;;
3000;SDS011;1510;51.072;6.678;2023-02-19T06:27:51;612.20;;;570.97;;
3000;SDS011;1510;51.072;6.678;2023-02-19T06:30:18;617.60;;;574.90;;
3000;SDS011;1510;51.072;6.678;2023-02-19T06:32:45;627.73;;;583.17;;
3000;SDS011;1510;51.072;6.678;2023-02-19T06:35:11;638.47;;;592.93;;
3000;SDS011;1510;51.072;6.678;2023-02-19T06:37:39;639.30;;;592.27;;
3000;SDS011;1510;51.072;6.678;2023-02-19T06:40:06;629.07;;;584.40;;
3000;SDS011;1510;51.072;6.678;2023-02-19T06:42:33;627.57;;;584.10;;
3000;SDS011;1510;51.072;6.678;2023-02-19T06:45:00;625.07;;;580.07;;
3000;SDS011;1510;51.072;6.678;2023-02-19T06:47:29;637.20;;;592.20;;
3000;SDS011;1510;51.072;6.678;2023-02-19T06:49:56;618.77;;;571.97;;
3000;SDS011;1510;51.072;6.678;2023-02-19T06:52:23;634.27;;;588.53;;
3000;SDS011;1510;51.072;6.678;2023-02-19T06:54:51;631.40;;;588.50;;
3000;SDS011;1510;51.072;6.678;2023-02-19T06:57:18;629.57;;;585.30;;
3000;SDS011;1510;51.072;6.678;2023-02-19T06:59:45;624.33;;;581.70;;
3000;SDS011;1510;51.072;6.678;2023-02-19T07:02:12;636.97;;;594.30;;
3000;SDS011;1510;51.072;6.678;2023-02-19T07:04:39;636.80;;;593.10;;
3000;SDS011;1510;51.072;6.678;2023-02-19T07:07:05;638.40;;;595.10;;
3000;SDS011;1510;51.072;6.678;2023-02-19T07:09:35;637.60;;;594.23;;
3000;SDS011;1510;51.072;6.678;2023-02-19T07:12:03;640.57;;;595.97;;
3000;SDS011;1510;51.072;6.678;2023-02-19T07:14:31;635.73;;;592.47;;
3000;SDS011;1510;51.072;6.678;2023-02-19T07:16:57;639.87;;;598.37;;
3000;SDS011;1510;51.072;6.678;2023-02-19T07:19:24;569.10;;;532.63;;
3000;SDS011;1510;51.072;6.678;2023-02-19T07:21:51;596.37;;;557.03;;
3000;SDS011;1510;51.072;6.678;2023-02-19T07:24:18;600.63;;;561.17;;
3000;SDS011;1510;51.072;6.678;2023-02-19T07:26:45;630.67;;;587.43;;
3000;SDS011;1510;51.072;6.678;2023-02-19T07:29:13;641.90;;;597.53;;
3000;SDS011;1510;51.072;6.678;2023-02-19T07:31:41;636.07;;;593.90;;
3000;SDS011;1510;51.072;6.678;2023-02-19T07:34:08;625.60;;;584.00;;
3000;SDS011;1510;51.072;6.678;2023-02-19T07:36:34;630.17;;;587.30;;
3000;SDS011;1510;51.072;6.678;2023-02-19T07:39:01;627.33;;;585.03;;
3000;SDS011;1510;51.072;6.678;2023-02-19T07:41:28;626.13;;;583.17;;
3000;SDS011;1510;51.072;6.678;2023-02-19T07:43:55;626.43;;;585.07;;
3000;SDS011;1510;51.072;6.678;2023-02-19T07:46:23;623.83;;;583.07;;
3000;SDS011;1510;51.072;6.678;2023-02-19T07:48:50;615.37;;;575.07;;
3000;SDS011;1510;51.072;6.678;2023-02-19T07:51:18;572.80;;;535.67;;
3000;SDS011;1510;51.072;6.678;2023-02-19T07:53:45;610.20;;;569.43;;
3000;SDS011;1510;51.072;6.678;2023-02-19T07:56:14;624.20;;;583.10;;
3000;SDS011;1510;51.072;6.678;2023-02-19T07:58:41;622.93;;;581.63;;
3000;SDS011;1510;51.072;6.678;2023-02-19T08:01:09;617.87;;;576.87;;
3000;SDS011;1510;51.072;6.678;2023-02-19T08:03:41;619.13;;;579.13;;
3000;SDS011;1510;51.072;6.678;2023-02-19T08:06:07;622.50;;;582.60;;
3000;SDS011;1510;51.072;6.678;2023-02-19T08:08:35;612.70;;;573.37;;
3000;SDS011;1510;51.072;6.678;2023-02-19T08:11:02;622.60;;;581.93;;
3000;SDS011;1510;51.072;6.678;2023-02-19T08:13:49;628.47;;;588.70;;
3000;SDS011;1510;51.072;6.678;2023-02-19T08:16:16;626.23;;;587.10;;
3000;SDS011;1510;51.072;6.678;2023-02-19T08:18:46;608.20;;;571.40;;
3000;SDS011;1510;51.072;6.678;2023-02-19T08:21:13;614.27;;;575.60;;
3000;SDS011;1510;51.072;6.678;2023-02-19T08:23:42;625.60;;;586.83;;
3000;SDS011;1510;51.072;6.678;2023-02-19T08:26:09;631.47;;;592.60;;
3000;SDS011;1510;51.072;6.678;2023-02-19T08:28:36;619.40;;;581.67;;
3000;SDS011;1510;51.072;6.678;2023-02-19T08:31:04;598.97;;;563.57;;
3000;SDS011;1510;51.072;6.678;2023-02-19T08:33:31;592.10;;;560.57;;
3000;SDS011;1510;51.072;6.678;2023-02-19T08:36:01;602.20;;;568.27;;
3000;SDS011;1510;51.072;6.678;2023-02-19T08:38:29;602.23;;;569.53;;
3000;SDS011;1510;51.072;6.678;2023-02-19T08:40:58;598.87;;;566.13;;
3000;SDS011;1510;51.072;6.678;2023-02-19T08:43:24;584.43;;;554.23;;
3000;SDS011;1510;51.072;6.678;2023-02-19T08:45:52;601.07;;;567.93;;
3000;SDS011;1510;51.072;6.678;2023-02-19T08:48:20;596.87;;;566.17;;
3000;SDS011;1510;51.072;6.678;2023-02-19T08:50:52;597.73;;;565.67;;
3000;SDS011;1510;51.072;6.678;2023-02-19T08:53:21;564.00;;;537.07;;
3000;SDS011;1510;51.072;6.678;2023-02-19T08:55:48;551.47;;;527.30;;
3000;SDS011;1510;51.072;6.678;2023-02-19T08:58:15;556.17;;;530.13;;
3000;SDS011;1510;51.072;6.678;2023-02-19T09:00:42;526.70;;;503.23;;
3000;SDS011;1510;51.072;6.678;2023-02-19T09:03:09;506.33;;;483.70;;
3000;SDS011;1510;51.072;6.678;2023-02-19T09:05:36;506.00;;;483.73;;
3000;SDS011;1510;51.072;6.678;2023-02-19T09:08:03;465.80;;;445.40;;
3000;SDS011;1510;51.072;6.678;2023-02-19T09:10:31;414.80;;;398.00;;
3000;SDS011;1510;51.072;6.678;2023-02-19T09:12:58;452.17;;;433.37;;
3000;SDS011;1510;51.072;6.678;2023-02-19T09:15:26;429.77;;;413.07;;
3000;SDS011;1510;51.072;6.678;2023-02-19T09:17:53;368.10;;;354.17;;
3000;SDS011;1510;51.072;6.678;2023-02-19T09:20:20;322.33;;;309.83;;
3000;SDS011;1510;51.072;6.678;2023-02-19T09:22:47;394.70;;;379.20;;
3000;SDS011;1510;51.072;6.678;2023-02-19T09:25:13;328.97;;;316.83;;
3000;SDS011;1510;51.072;6.678;2023-02-19T09:27:42;198.30;;;190.70;;
3000;SDS011;1510;51.072;6.678;2023-02-19T09:30:09;349.07;;;337.20;;
3000;SDS011;1510;51.072;6.678;2023-02-19T09:32:35;159.97;;;153.77;;
3000;SDS011;1510;51.072;6.678;2023-02-19T09:35:02;405.30;;;391.30;;
3000;SDS011;1510;51.072;6.678;2023-02-19T09:37:29;369.03;;;356.97;;
3000;SDS011;1510;51.072;6.678;2023-02-19T09:39:56;411.80;;;397.80;;
3000;SDS011;1510;51.072;6.678;2023-02-19T09:42:23;455.43;;;439.37;;
3000;SDS011;1510;51.072;6.678;2023-02-19T09:44:55;356.03;;;343.63;;
3000;SDS011;1510;51.072;6.678;2023-02-19T09:47:24;334.33;;;323.10;;
3000;SDS011;1510;51.072;6.678;2023-02-19T09:49:53;365.87;;;352.97;;
3000;SDS011;1510;51.072;6.678;2023-02-19T09:52:26;383.93;;;370.33;;
3000;SDS011;1510;51.072;6.678;2023-02-19T09:54:58;399.30;;;384.97;;
3000;SDS011;1510;51.072;6.678;2023-02-19T09:57:27;461.77;;;445.37;;
3000;SDS011;1510;51.072;6.678;2023-02-19T09:59:58;427.03;;;411.90;;
3000;SDS011;1510;51.072;6.678;2023-02-19T10:02:30;431.90;;;416.40;;
3000;SDS011;1510;51.072;6.678;2023-02-19T10:04:57;508.40;;;489.00;;
3000;SDS011;1510;51.072;6.678;2023-02-19T10:07:27;498.83;;;480.37;;
3000;SDS011;1510;51.072;6.678;2023-02-19T10:10:01;482.90;;;465.80;;
3000;SDS011;1510;51.072;6.678;2023-02-19T10:12:44;469.63;;;452.77;;
3000;SDS011;1510;51.072;6.678;2023-02-19T10:15:16;534.10;;;512.90;;
3000;SDS011;1510;51.072;6.678;2023-02-19T10:17:47;513.67;;;494.27;;
3000;SDS011;1510;51.072;6.678;2023-02-19T10:20:14;531.13;;;509.03;;
3000;SDS011;1510;51.072;6.678;2023-02-19T10:22:42;572.37;;;547.07;;
3000;SDS011;1510;51.072;6.678;2023-02-19T10:25:11;592.90;;;564.00;;
3000;SDS011;1510;51.072;6.678;2023-02-19T10:27:40;590.20;;;560.60;;
3000;SDS011;1510;51.072;6.678;2023-02-19T10:30:08;512.30;;;490.43;;
3000;SDS011;1510;51.072;6.678;2023-02-19T10:32:45;526.83;;;504.37;;
3000;SDS011;1510;51.072;6.678;2023-02-19T10:35:24;505.03;;;483.80;;
3000;SDS011;1510;51.072;6.678;2023-02-19T10:37:51;461.47;;;442.63;;
3000;SDS011;1510;51.072;6.678;2023-02-19T10:40:19;496.20;;;477.30;;
3000;SDS011;1510;51.072;6.678;2023-02-19T10:42:48;555.87;;;531.67;;
3000;SDS011;1510;51.072;6.678;2023-02-19T10:45:17;590.07;;;560.63;;
3000;SDS011;1510;51.072;6.678;2023-02-19T10:47:49;570.13;;;542.33;;
3000;SDS011;1510;51.072;6.678;2023-02-19T10:50:20;544.23;;;519.83;;
3000;SDS011;1510;51.072;6.678;2023-02-19T10:52:52;518.07;;;496.13;;
3000;SDS011;1510;51.072;6.678;2023-02-19T10:55:25;452.10;;;434.53;;
3000;SDS011;1510;51.072;6.678;2023-02-19T10:57:54;311.80;;;300.50;;
3000;SDS011;1510;51.072;6.678;2023-02-19T11:00:23;89.23;;;85.33;;
3000;SDS011;1510;51.072;6.678;2023-02-19T11:05:49;28.87;;;27.27;;
3000;SDS011;1510;51.072;6.678;2023-02-19T11:08:21;94.93;;;90.43;;
3000;SDS011;1510;51.072;6.678;2023-02-19T11:10:49;29.73;;;27.43;;
3000;SDS011;1510;51.072;6.678;2023-02-19T11:13:17;32.90;;;31.10;;
3000;SDS011;1510;51.072;6.678;2023-02-19T11:15:52;32.33;;;29.93;;
3000;SDS011;1510;51.072;6.678;2023-02-19T11:18:22;94.07;;;89.60;;
3000;SDS011;1510;51.072;6.678;2023-02-19T11:20:52;134.97;;;130.03;;
3000;SDS011;1510;51.072;6.678;2023-02-19T11:23:22;191.90;;;185.13;;
3000;SDS011;1510;51.072;6.678;2023-02-19T11:25:52;210.77;;;203.37;;
3000;SDS011;1510;51.072;6.678;2023-02-19T11:28:23;174.53;;;168.37;;
3000;SDS011;1510;51.072;6.678;2023-02-19T11:30:56;160.53;;;154.33;;
3000;SDS011;1510;51.072;6.678;2023-02-19T11:33:43;133.77;;;128.60;;
3000;SDS011;1510;51.072;6.678;2023-02-19T11:36:27;57.47;;;54.87;;
3000;SDS011;1510;51.072;6.678;2023-02-19T11:38:56;83.20;;;79.23;;
3000;SDS011;1510;51.072;6.678;2023-02-19T11:41:28;66.23;;;62.63;;
3000;SDS011;1510;51.072;6.678;2023-02-19T11:44:11;57.53;;;54.63;;
3000;SDS011;1510;51.072;6.678;2023-02-19T11:46:52;17.27;;;15.60;;
3000;SDS011;1510;51.072;6.678;2023-02-19T11:49:27;21.93;;;20.40;;
3000;SDS011;1510;51.072;6.678;2023-02-19T11:52:08;18.40;;;16.83;;
3000;SDS011;1510;51.072;6.678;2023-02-19T11:54:45;24.27;;;22.60;;
3000;SDS011;1510;51.072;6.678;2023-02-19T11:57:21;17.53;;;15.93;;
3000;SDS011;1510;51.072;6.678;2023-02-19T12:00:01;10.00;;;8.10;;
3000;SDS011;1510;51.072;6.678;2023-02-19T12:02:45;7.60;;;5.17;;
3000;SDS011;1510;51.072;6.678;2023-02-19T12:05:38;9.50;;;5.10;;
3000;SDS011;1510;51.072;6.678;2023-02-19T12:11:22;12.60;;;5.93;;
3000;SDS011;1510;51.072;6.678;2023-02-19T12:17:30;12.23;;;4.83;;
3000;SDS011;1510;51.072;6.678;2023-02-19T12:20:13;8.23;;;5.07;;
3000;SDS011;1510;51.072;6.678;2023-02-19T12:22:50;14.20;;;4.30;;
3000;SDS011;1510;51.072;6.678;2023-02-19T12:25:29;5.53;;;2.93;;
3000;SDS011;1510;51.072;6.678;2023-02-19T12:28:11;5.97;;;4.20;;
3000;SDS011;1510;51.072;6.678;2023-02-19T12:31:06;8.63;;;4.13;;
3000;SDS011;1510;51.072;6.678;2023-02-19T12:36:42;13.30;;;4.70;;
3000;SDS011;1510;51.072;6.678;2023-02-19T12:39:22;8.70;;;3.90;;
3000;SDS011;1510;51.072;6.678;2023-02-19T12:42:00;6.20;;;3.10;;
3000;SDS011;1510;51.072;6.678;2023-02-19T12:44:32;7.40;;;3.33;;
3000;SDS011;1510;51.072;6.678;2023-02-19T12:47:04;14.33;;;3.80;;
3000;SDS011;1510;51.072;6.678;2023-02-19T12:49:32;9.43;;;3.47;;
3000;SDS011;1510;51.072;6.678;2023-02-19T12:52:05;13.30;;;4.90;;
3000;SDS011;1510;51.072;6.678;2023-02-19T12:54:37;9.10;;;5.30;;
3000;SDS011;1510;51.072;6.678;2023-02-19T12:57:09;11.60;;;5.73;;
3000;SDS011;1510;51.072;6.678;2023-02-19T12:59:39;9.97;;;5.00;;
3000;SDS011;1510;51.072;6.678;2023-02-19T13:02:11;8.50;;;3.67;;
3000;SDS011;1510;51.072;6.678;2023-02-19T13:04:46;8.53;;;3.40;;
3000;SDS011;1510;51.072;6.678;2023-02-19T13:07:16;7.53;;;3.97;;
3000;SDS011;1510;51.072;6.678;2023-02-19T13:09:49;11.27;;;3.57;;
3000;SDS011;1510;51.072;6.678;2023-02-19T13:12:20;7.00;;;3.70;;
3000;SDS011;1510;51.072;6.678;2023-02-19T13:14:53;7.00;;;3.20;;
3000;SDS011;1510;51.072;6.678;2023-02-19T13:17:23;7.03;;;3.20;;
3000;SDS011;1510;51.072;6.678;2023-02-19T13:19:55;9.07;;;3.90;;
3000;SDS011;1510;51.072;6.678;2023-02-19T13:22:29;7.30;;;3.63;;
3000;SDS011;1510;51.072;6.678;2023-02-19T13:25:21;9.50;;;4.30;;
3000;SDS011;1510;51.072;6.678;2023-02-19T13:28:00;9.63;;;2.93;;
3000;SDS011;1510;51.072;6.678;2023-02-19T13:30:42;9.73;;;3.40;;
3000;SDS011;1510;51.072;6.678;2023-02-19T13:33:25;8.97;;;4.93;;
3000;SDS011;1510;51.072;6.678;2023-02-19T13:36:10;8.77;;;4.70;;
3000;SDS011;1510;51.072;6.678;2023-02-19T13:38:40;6.07;;;3.90;;
3000;SDS011;1510;51.072;6.678;2023-02-19T13:41:20;7.90;;;4.43;;
3000;SDS011;1510;51.072;6.678;2023-02-19T13:43:53;10.13;;;4.47;;
3000;SDS011;1510;51.072;6.678;2023-02-19T13:46:23;11.73;;;5.70;;
3000;SDS011;1510;51.072;6.678;2023-02-19T14:01:16;8.53;;;5.53;;
3000;SDS011;1510;51.072;6.678;2023-02-19T14:03:45;12.30;;;6.97;;
3000;SDS011;1510;51.072;6.678;2023-02-19T14:06:15;12.50;;;11.30;;
3000;SDS011;1510;51.072;6.678;2023-02-19T14:08:45;11.87;;;9.57;;
3000;SDS011;1510;51.072;6.678;2023-02-19T14:12:00;276.17;;;267.30;;
3000;SDS011;1510;51.072;6.678;2023-02-19T14:14:33;433.57;;;419.17;;
3000;SDS011;1510;51.072;6.678;2023-02-19T14:17:21;657.77;;;627.10;;
3000;SDS011;1510;51.072;6.678;2023-02-19T14:19:52;702.47;;;658.30;;
3000;SDS011;1510;51.072;6.678;2023-02-19T14:25:35;712.37;;;667.87;;
3000;SDS011;1510;51.072;6.678;2023-02-19T14:28:18;682.30;;;645.50;;
3000;SDS011;1510;51.072;6.678;2023-02-19T14:30:50;618.63;;;590.83;;
3000;SDS011;1510;51.072;6.678;2023-02-19T14:33:20;604.90;;;579.03;;
3000;SDS011;1510;51.072;6.678;2023-02-19T14:35:50;616.73;;;589.87;;
3000;SDS011;1510;51.072;6.678;2023-02-19T14:38:19;611.07;;;584.17;;
3000;SDS011;1510;51.072;6.678;2023-02-19T14:40:49;547.53;;;526.53;;
3000;SDS011;1510;51.072;6.678;2023-02-19T14:43:20;626.97;;;597.70;;
3000;SDS011;1510;51.072;6.678;2023-02-19T14:45:50;586.50;;;561.23;;
3000;SDS011;1510;51.072;6.678;2023-02-19T14:48:21;613.77;;;585.50;;
3000;SDS011;1510;51.072;6.678;2023-02-19T14:50:52;547.30;;;525.70;;
3000;SDS011;1510;51.072;6.678;2023-02-19T14:53:22;485.67;;;468.67;;
3000;SDS011;1510;51.072;6.678;2023-02-19T14:55:51;482.20;;;464.03;;
3000;SDS011;1510;51.072;6.678;2023-02-19T14:58:21;484.23;;;466.63;;
3000;SDS011;1510;51.072;6.678;2023-02-19T15:00:53;528.20;;;508.60;;
3000;SDS011;1510;51.072;6.678;2023-02-19T15:03:24;509.33;;;490.97;;
3000;SDS011;1510;51.072;6.678;2023-02-19T15:05:53;490.13;;;473.13;;
3000;SDS011;1510;51.072;6.678;2023-02-19T15:08:26;475.00;;;457.90;;
3000;SDS011;1510;51.072;6.678;2023-02-19T15:10:56;408.90;;;395.07;;
3000;SDS011;1510;51.072;6.678;2023-02-19T15:13:25;441.47;;;426.50;;
3000;SDS011;1510;51.072;6.678;2023-02-19T15:15:54;434.37;;;419.27;;
3000;SDS011;1510;51.072;6.678;2023-02-19T15:18:23;341.57;;;330.37;;
3000;SDS011;1510;51.072;6.678;2023-02-19T15:20:51;346.17;;;335.17;;